createdAt,value
2019-02-25T00:01:10.950Z,95310.26
2019-02-25T00:03:39.645Z,95303.97
2019-02-25T00:06:07.923Z,95299.81
2019-02-25T00:09:07.357Z,95298.53
2019-02-25T00:11:35.655Z,95295.18
2019-02-25T00:14:03.978Z,95289.91
2019-02-25T00:16:31.904Z,95291.91
2019-02-25T00:19:00.042Z,95286.41
2019-02-25T00:21:27.935Z,95282.19
2019-02-25T00:23:56.183Z,95277.61
2019-02-25T00:26:24.466Z,95285.14
2019-02-25T00:28:52.332Z,95279.77
2019-02-25T00:31:20.921Z,95282.20
2019-02-25T00:33:48.702Z,95272.72
2019-02-25T00:36:16.317Z,95277.95
2019-02-25T00:38:43.873Z,95271.31
2019-02-25T00:41:12.523Z,95274.86
2019-02-25T00:43:40.434Z,95271.59
2019-02-25T00:46:08.883Z,95273.23
2019-02-25T00:48:37.461Z,95268.21
2019-02-25T00:51:06.096Z,95267.25
2019-02-25T00:53:34.222Z,95267.25
2019-02-25T00:56:01.804Z,95267.67
2019-02-25T00:58:30.083Z,95269.79
2019-02-25T01:00:58.379Z,95260.97
2019-02-25T01:03:25.965Z,95267.69
2019-02-25T01:05:54.288Z,95262.67
2019-02-25T01:08:22.195Z,95264.14
2019-02-25T01:10:49.720Z,95268.70
2019-02-25T01:13:17.367Z,95260.13
2019-02-25T01:15:45.909Z,95261.94
2019-02-25T01:18:14.512Z,95258.19
2019-02-25T01:20:43.188Z,95254.21
2019-02-25T01:23:11.589Z,95259.66
2019-02-25T01:25:40.275Z,95251.67
2019-02-25T01:28:08.545Z,95250.42
2019-02-25T01:30:36.419Z,95246.08
2019-02-25T01:33:04.680Z,95246.51
2019-02-25T01:35:32.480Z,95249.66
2019-02-25T01:38:01.115Z,95249.43
2019-02-25T01:40:29.345Z,95255.54
2019-02-25T01:42:57.931Z,95248.23
2019-02-25T01:45:25.808Z,95251.30
2019-02-25T01:47:54.086Z,95247.09
2019-02-25T01:50:22.257Z,95246.37
2019-02-25T01:52:50.855Z,95246.37
2019-02-25T01:55:19.652Z,95244.98
2019-02-25T01:57:47.871Z,95246.97
2019-02-25T02:00:16.309Z,95242.68
2019-02-25T02:02:44.533Z,95253.05
2019-02-25T02:05:12.675Z,95259.61
2019-02-25T02:07:40.974Z,95259.35
2019-02-25T02:10:10.479Z,95260.78
2019-02-25T02:12:39.058Z,95255.17
2019-02-25T02:15:09.794Z,95258.42
2019-02-25T02:17:37.668Z,95261.70
2019-02-25T02:20:06.594Z,95263.40
2019-02-25T02:22:35.149Z,95263.47
2019-02-25T02:25:03.127Z,95255.45
2019-02-25T02:27:30.913Z,95252.69
2019-02-25T02:29:58.727Z,95251.50
2019-02-25T02:32:27.289Z,95245.94
2019-02-25T02:34:55.891Z,95255.94
2019-02-25T02:37:23.708Z,95255.66
2019-02-25T02:39:51.632Z,95248.67
2019-02-25T02:42:39.831Z,95248.33
2019-02-25T02:45:30.255Z,95243.45
2019-02-25T02:48:36.917Z,95251.66
2019-02-25T02:51:24.174Z,95251.23
2019-02-25T02:53:52.367Z,95239.43
2019-02-25T02:56:20.666Z,95241.59
2019-02-25T02:58:49.251Z,95244.55
2019-02-25T03:01:17.524Z,95243.10
2019-02-25T03:03:45.394Z,95247.98
2019-02-25T03:06:14.095Z,95246.31
2019-02-25T03:08:42.770Z,95246.41
2019-02-25T03:11:10.604Z,95250.87
2019-02-25T03:13:38.429Z,95246.70
2019-02-25T03:16:06.691Z,95254.73
2019-02-25T03:18:35.305Z,95250.98
2019-02-25T03:21:03.888Z,95250.39
2019-02-25T03:23:32.411Z,95248.20
2019-02-25T03:26:01.066Z,95251.12
2019-02-25T03:28:29.131Z,95256.61
2019-02-25T03:30:57.414Z,95262.45
2019-02-25T03:33:24.996Z,95256.20
2019-02-25T03:35:53.305Z,95262.53
2019-02-25T03:38:21.661Z,95261.95
2019-02-25T03:40:49.512Z,95264.08
2019-02-25T03:43:17.618Z,95264.19
2019-02-25T03:45:46.092Z,95259.64
2019-02-25T03:48:14.348Z,95258.13
2019-02-25T03:50:42.593Z,95262.98
2019-02-25T03:53:10.425Z,95258.33
2019-02-25T03:55:38.631Z,95259.33
2019-02-25T03:58:06.989Z,95256.80
2019-02-25T04:00:35.495Z,95260.87
2019-02-25T04:03:03.850Z,95265.00
2019-02-25T04:05:32.372Z,95265.47
2019-02-25T04:08:00.615Z,95264.68
2019-02-25T04:10:29.135Z,95271.48
2019-02-25T04:12:57.801Z,95262.72
2019-02-25T04:15:31.283Z,95270.10
2019-02-25T04:17:59.222Z,95281.81
2019-02-25T04:20:27.464Z,95276.21
2019-02-25T04:22:55.709Z,95283.33
2019-02-25T04:25:24.026Z,95286.54
2019-02-25T04:27:52.165Z,95285.59
2019-02-25T04:30:20.793Z,95280.98
2019-02-25T04:32:48.986Z,95281.04
2019-02-25T04:35:17.359Z,95280.27
2019-02-25T04:37:45.652Z,95273.94
2019-02-25T04:40:13.927Z,95268.98
2019-02-25T04:42:42.247Z,95269.46
2019-02-25T04:45:12.861Z,95270.67
2019-02-25T04:47:41.148Z,95269.04
2019-02-25T04:50:09.827Z,95270.66
2019-02-25T04:52:37.754Z,95274.09
2019-02-25T04:55:05.758Z,95272.17
2019-02-25T04:57:33.645Z,95276.11
2019-02-25T05:00:01.816Z,95276.09
2019-02-25T05:02:30.346Z,95282.61
2019-02-25T05:04:58.265Z,95281.20
2019-02-25T05:07:26.144Z,95282.77
2019-02-25T05:09:54.737Z,95276.00
2019-02-25T05:12:22.884Z,95281.50
2019-02-25T05:14:51.085Z,95286.03
2019-02-25T05:17:19.384Z,95280.20
2019-02-25T05:19:47.998Z,95284.84
2019-02-25T05:22:16.754Z,95286.11
2019-02-25T05:24:45.057Z,95292.39
2019-02-25T05:27:13.266Z,95285.63
2019-02-25T05:29:41.911Z,95280.12
2019-02-25T05:32:10.171Z,95285.80
2019-02-25T05:34:38.393Z,95283.53
2019-02-25T05:37:06.956Z,95293.50
2019-02-25T05:39:35.561Z,95287.11
2019-02-25T05:42:03.826Z,95288.48
2019-02-25T05:44:32.322Z,95277.99
2019-02-25T05:47:00.915Z,95283.70
2019-02-25T05:49:29.090Z,95283.63
2019-02-25T05:51:57.636Z,95284.55
2019-02-25T05:54:25.450Z,95277.09
2019-02-25T05:56:53.691Z,95286.38
2019-02-25T05:59:21.597Z,95281.42
2019-02-25T06:01:49.366Z,95281.16
2019-02-25T06:04:17.653Z,95281.86
2019-02-25T06:06:46.239Z,95285.06
2019-02-25T06:09:14.126Z,95285.41
2019-02-25T06:11:42.409Z,95287.88
2019-02-25T06:14:10.614Z,95292.87
2019-02-25T06:16:38.455Z,95290.20
2019-02-25T06:19:07.034Z,95292.55
2019-02-25T06:21:35.735Z,95295.38
2019-02-25T06:24:04.317Z,95305.55
2019-02-25T06:26:32.191Z,95299.95
2019-02-25T06:29:00.740Z,95300.30
2019-02-25T06:31:29.259Z,95298.16
2019-02-25T06:33:57.550Z,95307.88
2019-02-25T06:36:25.841Z,95310.12
2019-02-25T06:38:54.496Z,95303.81
2019-02-25T06:41:22.715Z,95303.55
2019-02-25T06:43:51.290Z,95299.88
2019-02-25T06:46:19.973Z,95305.00
2019-02-25T06:48:47.857Z,95305.34
2019-02-25T06:51:16.181Z,95307.83
2019-02-25T06:53:44.391Z,95305.64
2019-02-25T06:56:12.590Z,95296.94
2019-02-25T06:58:41.207Z,95295.75
2019-02-25T07:01:09.081Z,95291.73
2019-02-25T07:03:37.358Z,95288.20
2019-02-25T07:06:24.680Z,95286.66
2019-02-25T07:09:12.084Z,95299.18
2019-02-25T07:11:59.800Z,95293.45
2019-02-25T07:14:47.540Z,95303.00
2019-02-25T07:17:34.927Z,95304.20
2019-02-25T07:20:09.432Z,95304.45
2019-02-25T07:23:16.259Z,95299.50
2019-02-25T07:26:03.782Z,95304.63
2019-02-25T07:28:51.069Z,95305.91
2019-02-25T07:31:38.186Z,95304.64
2019-02-25T07:34:25.651Z,95297.57
2019-02-25T07:37:13.412Z,95307.41
2019-02-25T07:40:00.379Z,95300.81
2019-02-25T07:42:38.142Z,95298.13
2019-02-25T07:45:28.481Z,95310.97
2019-02-25T07:48:36.700Z,95309.86
2019-02-25T07:51:24.227Z,95310.88
2019-02-25T07:53:59.179Z,95317.27
2019-02-25T07:56:35.034Z,95314.81
2019-02-25T07:59:22.098Z,95313.22
2019-02-25T08:02:09.684Z,95307.35
2019-02-25T08:04:57.460Z,95308.39
2019-02-25T08:07:44.614Z,95296.72
2019-02-25T08:10:32.396Z,95302.36
2019-02-25T08:16:21.687Z,95307.19
2019-02-25T08:19:09.061Z,95304.84
2019-02-25T08:24:49.492Z,95312.63
2019-02-25T08:27:49.018Z,95306.78
2019-02-25T08:30:48.138Z,95312.05
2019-02-25T08:33:36.070Z,95310.84
2019-02-25T08:37:02.755Z,95313.10
2019-02-25T08:40:11.695Z,95312.78
2019-02-25T08:42:57.675Z,95317.57
2019-02-25T08:45:45.081Z,95309.30
2019-02-25T08:48:17.798Z,95316.56
2019-02-25T08:50:46.256Z,95316.25
2019-02-25T08:55:54.715Z,95321.88
2019-02-25T08:58:22.887Z,95321.91
2019-02-25T09:00:51.168Z,95325.33
2019-02-25T09:03:19.791Z,95314.41
2019-02-25T09:05:48.558Z,95317.45
2019-02-25T09:08:16.832Z,95321.78
2019-02-25T09:10:44.395Z,95318.45
2019-02-25T09:13:13.089Z,95316.02
2019-02-25T09:15:41.385Z,95316.11
2019-02-25T09:18:49.784Z,95321.69
2019-02-25T09:21:18.334Z,95323.86
2019-02-25T09:23:46.852Z,95318.81
2019-02-25T09:26:15.077Z,95323.50
2019-02-25T09:28:43.649Z,95320.47
2019-02-25T09:31:12.110Z,95325.97
2019-02-25T09:33:40.398Z,95321.56
2019-02-25T09:36:08.981Z,95323.56
2019-02-25T09:38:37.263Z,95313.02
2019-02-25T09:41:05.542Z,95311.78
2019-02-25T09:43:34.127Z,95317.20
2019-02-25T09:46:02.671Z,95313.37
2019-02-25T09:48:30.949Z,95320.84
2019-02-25T09:50:59.631Z,95318.60
2019-02-25T09:56:29.816Z,95317.41
2019-02-25T09:58:57.686Z,95321.95
2019-02-25T10:01:25.923Z,95321.83
2019-02-25T10:03:54.246Z,95325.17
2019-02-25T10:06:22.131Z,95325.41
2019-02-25T10:08:50.776Z,95323.03
2019-02-25T10:11:19.030Z,95319.28
2019-02-25T10:13:47.697Z,95314.45
2019-02-25T10:16:16.076Z,95314.72
2019-02-25T10:18:44.370Z,95315.95
2019-02-25T10:21:12.950Z,95314.56
2019-02-25T10:23:40.617Z,95314.17
2019-02-25T10:26:09.042Z,95314.83
2019-02-25T10:28:36.876Z,95314.67
2019-02-25T10:31:04.455Z,95314.00
2019-02-25T10:33:32.665Z,95315.36
2019-02-25T10:36:00.922Z,95312.67
2019-02-25T10:38:29.589Z,95315.50
2019-02-25T10:40:59.363Z,95315.49
2019-02-25T10:43:36.525Z,95319.08
2019-02-25T10:46:51.552Z,95313.94
2019-02-25T10:49:20.068Z,95309.56
2019-02-25T10:51:48.418Z,95310.92
2019-02-25T10:54:17.075Z,95312.14
2019-02-25T10:57:14.491Z,95316.89
2019-02-25T10:59:42.772Z,95308.92
2019-02-25T11:02:13.172Z,95322.48
2019-02-25T11:04:41.842Z,95331.64
2019-02-25T11:07:10.342Z,95318.95
2019-02-25T11:09:57.850Z,95316.80
2019-02-25T11:12:27.819Z,95310.44
2019-02-25T11:14:56.451Z,95301.28
2019-02-25T11:17:24.648Z,95304.03
2019-02-25T11:19:54.973Z,95302.39
2019-02-25T11:22:28.882Z,95305.21
2019-02-25T11:24:57.732Z,95303.84
2019-02-25T11:27:35.353Z,95308.98
2019-02-25T11:30:16.588Z,95311.64
2019-02-25T11:36:05.536Z,95316.82
2019-02-25T11:38:37.087Z,95315.59
2019-02-25T11:53:15.200Z,95312.36
2019-02-25T11:56:23.523Z,95305.82
2019-02-25T12:01:52.355Z,95302.46
2019-02-25T12:05:00.556Z,95310.88
2019-02-25T12:07:28.826Z,95308.73
2019-02-25T12:10:37.462Z,95308.87
2019-02-25T12:16:07.184Z,95301.30
2019-02-25T12:21:44.528Z,95290.89
2019-02-25T12:24:52.821Z,95288.77
2019-02-25T12:33:35.369Z,95286.84
2019-02-25T12:36:03.709Z,95283.34
2019-02-25T12:38:32.274Z,95279.48
2019-02-25T12:41:01.064Z,95272.62
2019-02-25T12:47:09.457Z,95276.08
2019-02-25T12:49:56.991Z,95281.87
2019-02-25T12:55:38.079Z,95278.13
2019-02-25T12:58:37.391Z,95281.55
2019-02-25T13:01:24.681Z,95271.44
2019-02-25T13:04:33.374Z,95268.02
2019-02-25T13:07:01.234Z,95256.67
2019-02-25T13:09:29.632Z,95259.95
2019-02-25T13:11:57.493Z,95250.94
2019-02-25T13:14:26.056Z,95250.25
2019-02-25T13:16:54.066Z,95250.72
2019-02-25T13:19:22.355Z,95257.98
2019-02-25T13:25:13.264Z,95243.92
2019-02-25T13:27:48.721Z,95239.91
2019-02-25T13:30:35.983Z,95233.83
2019-02-25T13:33:04.498Z,95233.83
2019-02-25T13:35:44.391Z,95232.89
2019-02-25T13:38:12.858Z,95231.82
2019-02-25T13:40:41.015Z,95227.88
2019-02-25T13:43:09.051Z,95215.03
2019-02-25T13:45:36.986Z,95223.17
2019-02-25T13:48:05.567Z,95229.72
2019-02-25T13:50:33.126Z,95225.98
2019-02-25T13:56:21.739Z,95221.48
2019-02-25T13:59:30.343Z,95217.58
2019-02-25T14:02:10.393Z,95218.61
2019-02-25T14:07:39.940Z,95226.03
2019-02-25T14:10:20.503Z,95224.02
2019-02-25T14:12:48.395Z,95221.08
2019-02-25T14:18:29.409Z,95217.27
2019-02-25T14:21:38.067Z,95218.31
2019-02-25T14:27:29.594Z,95215.73
2019-02-25T14:30:45.003Z,95214.48
2019-02-25T14:33:14.444Z,95211.28
2019-02-25T14:35:53.100Z,95214.61
2019-02-25T14:38:29.919Z,95211.53
2019-02-25T14:41:46.523Z,95211.18
2019-02-25T14:47:46.965Z,95199.23
2019-02-25T14:50:35.804Z,95197.24
2019-02-25T14:53:54.741Z,95184.52
2019-02-25T15:02:31.210Z,95174.44
2019-02-25T15:08:21.519Z,95163.61
2019-02-25T15:10:50.524Z,95150.81
2019-02-25T15:13:19.699Z,95156.14
2019-02-25T15:16:06.920Z,95161.02
2019-02-25T15:19:15.512Z,95161.02
2019-02-25T15:32:02.714Z,95146.87
2019-02-25T15:37:36.625Z,95144.19
2019-02-25T15:40:45.954Z,95142.50
2019-02-25T15:43:45.709Z,95140.09
2019-02-25T15:49:25.643Z,95138.42
2019-02-25T15:58:16.093Z,95122.53
2019-02-25T16:03:56.498Z,95135.59
2019-02-25T16:06:31.755Z,95135.41
2019-02-25T16:12:40.955Z,95145.33
2019-02-25T16:15:29.132Z,95142.78
2019-02-25T16:18:44.294Z,95144.67
2019-02-25T16:21:43.942Z,95154.23
2019-02-25T16:30:13.222Z,95170.45
2019-02-25T16:33:23.750Z,95171.20
2019-02-25T16:36:03.996Z,95173.66
2019-02-25T16:42:05.251Z,95171.55
2019-02-25T16:44:33.681Z,95168.22
2019-02-25T16:50:23.252Z,95169.84
2019-02-25T16:53:05.942Z,95162.84
2019-02-25T16:58:40.449Z,95170.91
2019-02-25T17:04:11.878Z,95178.11
2019-02-25T17:10:01.398Z,95182.61
2019-02-25T17:12:37.526Z,95192.52
2019-02-25T17:18:26.736Z,95202.92
2019-02-25T17:20:54.907Z,95202.98
2019-02-25T17:23:25.127Z,95199.61
2019-02-25T17:26:02.031Z,95206.41
2019-02-25T17:28:29.938Z,95203.02
2019-02-25T17:30:58.258Z,95209.84
2019-02-25T17:33:28.219Z,95212.38
2019-02-25T17:38:58.723Z,95203.87
2019-02-25T17:41:39.919Z,95215.30
2019-02-25T17:47:24.496Z,95218.64
2019-02-25T17:52:50.161Z,95216.39
2019-02-25T17:55:59.882Z,95218.90
2019-02-25T17:58:38.093Z,95217.61
2019-02-25T18:01:56.214Z,95215.05
2019-02-25T18:04:26.549Z,95214.16
2019-02-25T18:06:55.369Z,95215.81
2019-02-25T18:09:24.840Z,95217.50
2019-02-25T18:11:53.200Z,95217.02
2019-02-25T18:14:21.466Z,95211.03
2019-02-25T18:16:51.272Z,95204.63
2019-02-25T18:19:20.860Z,95205.03
2019-02-25T18:21:58.164Z,95210.11
2019-02-25T18:24:32.968Z,95213.44
2019-02-25T18:27:00.575Z,95212.52
2019-02-25T18:29:28.818Z,95215.02
2019-02-25T18:32:06.029Z,95216.72
2019-02-25T18:34:44.319Z,95212.81
2019-02-25T18:37:13.476Z,95219.55
2019-02-25T18:39:50.067Z,95220.41
2019-02-25T18:42:26.065Z,95223.80
2019-02-25T18:44:54.462Z,95222.95
2019-02-25T18:47:25.027Z,95214.02
2019-02-25T18:49:53.976Z,95216.16
2019-02-25T18:52:29.660Z,95208.95
2019-02-25T18:55:06.738Z,95212.34
2019-02-25T18:58:22.227Z,95211.02
2019-02-25T19:04:11.140Z,95212.69
2019-02-25T19:06:47.836Z,95216.48
2019-02-25T19:09:23.175Z,95216.88
2019-02-25T19:11:58.989Z,95217.23
2019-02-25T19:14:28.875Z,95219.27
2019-02-25T19:17:06.398Z,95220.51
2019-02-25T19:20:21.582Z,95228.49
2019-02-25T19:23:02.819Z,95222.56
2019-02-25T19:28:45.921Z,95214.41
2019-02-25T19:31:14.151Z,95214.34
2019-02-25T19:33:42.749Z,95217.70
2019-02-25T19:36:11.583Z,95220.14
2019-02-25T19:38:41.848Z,95220.06
2019-02-25T19:41:17.750Z,95225.08
2019-02-25T19:43:47.422Z,95226.77
2019-02-25T19:46:16.231Z,95227.54
2019-02-25T19:48:47.021Z,95225.34
2019-02-25T19:51:23.062Z,95232.92
2019-02-25T19:53:59.829Z,95224.80
2019-02-25T19:56:35.712Z,95220.06
2019-02-25T19:59:05.657Z,95221.29
2019-02-25T20:01:40.908Z,95228.02
2019-02-25T20:04:11.480Z,95219.90
2019-02-25T20:10:19.262Z,95225.78
2019-02-25T20:16:15.825Z,95225.69
2019-02-25T20:18:42.022Z,95226.03
2019-02-25T20:21:22.545Z,95222.64
2019-02-25T20:23:53.829Z,95218.32
2019-02-25T20:26:28.775Z,95225.09
2019-02-25T20:31:59.694Z,95215.41
2019-02-25T20:34:29.710Z,95218.79
2019-02-25T20:36:59.922Z,95217.48
2019-02-25T20:40:17.137Z,95214.05
2019-02-25T20:42:56.097Z,95219.08
2019-02-25T20:45:32.640Z,95221.10
2019-02-25T20:48:01.963Z,95217.67
2019-02-25T20:51:22.711Z,95224.05
2019-02-25T20:54:01.189Z,95224.44
2019-02-25T20:56:30.911Z,95234.63
2019-02-25T20:59:07.587Z,95233.41
2019-02-25T21:02:16.776Z,95238.95
2019-02-25T21:08:08.819Z,95241.53
2019-02-25T21:10:36.870Z,95236.46
2019-02-25T21:13:05.432Z,95238.20
2019-02-25T21:15:35.729Z,95229.78
2019-02-25T21:18:51.258Z,95239.95
2019-02-25T21:21:30.762Z,95238.72
2019-02-25T21:24:06.783Z,95245.11
2019-02-25T21:30:04.366Z,95237.08
2019-02-25T21:32:47.134Z,95235.80
2019-02-25T21:35:27.612Z,95234.86
2019-02-25T21:38:41.038Z,95235.20
2019-02-25T21:41:11.173Z,95234.21
2019-02-25T21:43:49.332Z,95234.97
2019-02-25T21:52:46.150Z,95232.75
2019-02-25T21:55:23.839Z,95242.57
2019-02-25T21:58:30.448Z,95243.46
2019-02-25T22:01:18.308Z,95237.97
2019-02-25T22:03:48.712Z,95245.95
2019-02-25T22:06:20.028Z,95247.59
2019-02-25T22:12:21.997Z,95234.86
2019-02-25T22:15:10.820Z,95238.63
2019-02-25T22:17:53.019Z,95241.15
2019-02-25T22:21:09.484Z,95236.94
2019-02-25T22:23:43.517Z,95241.11
2019-02-25T22:26:12.651Z,95236.52
2019-02-25T22:32:03.943Z,95236.08
2019-02-25T22:35:00.556Z,95234.86
2019-02-25T22:37:49.664Z,95232.32
2019-02-25T22:40:38.827Z,95229.47
2019-02-25T22:43:59.957Z,95226.41
2019-02-25T22:46:57.526Z,95227.30
2019-02-25T22:49:45.432Z,95223.87
2019-02-25T22:52:34.774Z,95220.01
2019-02-25T22:55:54.738Z,95214.42
2019-02-25T22:58:31.595Z,95230.16
2019-02-25T23:07:50.217Z,95234.98
2019-02-25T23:10:29.805Z,95226.89
2019-02-25T23:12:58.513Z,95228.17
2019-02-25T23:15:30.153Z,95224.36
2019-02-25T23:18:25.853Z,95222.26
2019-02-25T23:21:03.360Z,95230.34
2019-02-25T23:24:12.027Z,95231.98
2019-02-25T23:30:00.431Z,95229.86
2019-02-25T23:33:11.785Z,95236.16
2019-02-25T23:35:49.191Z,95228.91
2019-02-25T23:38:18.858Z,95226.75
2019-02-25T23:40:47.218Z,95225.00
2019-02-25T23:43:16.727Z,95222.88
2019-02-25T23:45:46.406Z,95221.16
2019-02-25T23:48:21.712Z,95221.14
2019-02-25T23:50:50.310Z,95220.72
2019-02-25T23:53:31.089Z,95225.38
2019-02-25T23:56:00.369Z,95227.11
2019-02-25T23:58:28.637Z,95231.23
